sensor_id;sensor_type;location;lat;lon;timestamp;temperature;humidity
14359;DHT22;7263;49.418;11.064;2022-09-30T00:00:55;6.00;99.90
14359;DHT22;7263;49.418;11.064;2022-09-30T00:03:22;6.10;99.90
14359;DHT22;7263;49.418;11.064;2022-09-30T00:05:55;6.10;99.90
14359;DHT22;7263;49.418;11.064;2022-09-30T00:08:24;6.00;99.90
14359;DHT22;7263;49.418;11.064;2022-09-30T00:11:01;6.00;99.90
14359;DHT22;7263;49.418;11.064;2022-09-30T00:13:29;6.00;99.90
14359;DHT22;7263;49.418;11.064;2022-09-30T00:15:56;5.90;99.90
14359;DHT22;7263;49.418;11.064;2022-09-30T00:20:50;5.90;99.90
14359;DHT22;7263;49.418;11.064;2022-09-30T00:25:46;5.90;99.90
14359;DHT22;7263;49.418;11.064;2022-09-30T00:30:41;5.80;99.90
14359;DHT22;7263;49.418;11.064;2022-09-30T00:33:08;5.70;99.90
14359;DHT22;7263;49.418;11.064;2022-09-30T00:38:02;5.60;99.90
14359;DHT22;7263;49.418;11.064;2022-09-30T00:42:58;5.50;99.90
14359;DHT22;7263;49.418;11.064;2022-09-30T00:45:26;5.40;99.90
14359;DHT22;7263;49.418;11.064;2022-09-30T00:50:36;5.30;99.90
14359;DHT22;7263;49.418;11.064;2022-09-30T00:53:09;5.30;99.90
14359;DHT22;7263;49.418;11.064;2022-09-30T00:55:49;5.20;99.90
14359;DHT22;7263;49.418;11.064;2022-09-30T00:58:23;5.20;99.90
14359;DHT22;7263;49.418;11.064;2022-09-30T01:00:50;5.20;99.90
14359;DHT22;7263;49.418;11.064;2022-09-30T01:03:18;5.10;99.90
14359;DHT22;7263;49.418;11.064;2022-09-30T01:05:47;5.10;99.90
14359;DHT22;7263;49.418;11.064;2022-09-30T01:08:15;5.10;99.90
14359;DHT22;7263;49.418;11.064;2022-09-30T01:13:12;5.10;99.90
14359;DHT22;7263;49.418;11.064;2022-09-30T01:18:21;5.00;99.90
14359;DHT22;7263;49.418;11.064;2022-09-30T01:21:07;5.00;99.90
14359;DHT22;7263;49.418;11.064;2022-09-30T01:24:08;4.90;99.90
14359;DHT22;7263;49.418;11.064;2022-09-30T01:26:48;4.90;99.90
14359;DHT22;7263;49.418;11.064;2022-09-30T01:29:35;4.80;99.90
14359;DHT22;7263;49.418;11.064;2022-09-30T01:32:18;4.80;99.90
14359;DHT22;7263;49.418;11.064;2022-09-30T01:34:55;4.70;99.90
14359;DHT22;7263;49.418;11.064;2022-09-30T01:37:38;4.70;99.90
14359;DHT22;7263;49.418;11.064;2022-09-30T01:40:14;4.60;99.90
14359;DHT22;7263;49.418;11.064;2022-09-30T01:42:53;4.60;99.90
14359;DHT22;7263;49.418;11.064;2022-09-30T01:45:29;4.60;99.90
14359;DHT22;7263;49.418;11.064;2022-09-30T01:48:02;4.50;99.90
14359;DHT22;7263;49.418;11.064;2022-09-30T01:50:38;4.40;99.90
14359;DHT22;7263;49.418;11.064;2022-09-30T01:53:12;4.40;99.90
14359;DHT22;7263;49.418;11.064;2022-09-30T01:55:46;4.40;99.90
14359;DHT22;7263;49.418;11.064;2022-09-30T01:58:18;4.30;99.90
14359;DHT22;7263;49.418;11.064;2022-09-30T02:00:49;4.40;99.90
14359;DHT22;7263;49.418;11.064;2022-09-30T02:03:23;4.40;99.90
14359;DHT22;7263;49.418;11.064;2022-09-30T02:05:55;4.40;99.90
14359;DHT22;7263;49.418;11.064;2022-09-30T02:08:32;4.40;99.90
14359;DHT22;7263;49.418;11.064;2022-09-30T02:11:03;4.50;99.90
14359;DHT22;7263;49.418;11.064;2022-09-30T02:13:37;4.60;99.90
14359;DHT22;7263;49.418;11.064;2022-09-30T02:16:06;4.70;99.90
14359;DHT22;7263;49.418;11.064;2022-09-30T02:18:41;4.70;99.90
14359;DHT22;7263;49.418;11.064;2022-09-30T02:21:12;4.90;99.90
14359;DHT22;7263;49.418;11.064;2022-09-30T02:23:42;4.80;99.90
14359;DHT22;7263;49.418;11.064;2022-09-30T02:26:13;4.90;99.90
14359;DHT22;7263;49.418;11.064;2022-09-30T02:28:48;5.00;99.90
14359;DHT22;7263;49.418;11.064;2022-09-30T02:31:17;5.00;99.90
14359;DHT22;7263;49.418;11.064;2022-09-30T02:33:53;5.10;99.90
14359;DHT22;7263;49.418;11.064;2022-09-30T02:36:26;5.00;99.90
14359;DHT22;7263;49.418;11.064;2022-09-30T02:38:58;5.10;99.90
14359;DHT22;7263;49.418;11.064;2022-09-30T02:41:28;5.20;99.90
14359;DHT22;7263;49.418;11.064;2022-09-30T02:46:29;5.20;99.90
14359;DHT22;7263;49.418;11.064;2022-09-30T02:49:03;5.20;99.90
14359;DHT22;7263;49.418;11.064;2022-09-30T02:51:36;5.30;99.90
14359;DHT22;7263;49.418;11.064;2022-09-30T02:54:16;5.30;99.90
14359;DHT22;7263;49.418;11.064;2022-09-30T02:56:49;5.30;99.90
14359;DHT22;7263;49.418;11.064;2022-09-30T02:59:19;5.40;99.90
14359;DHT22;7263;49.418;11.064;2022-09-30T03:01:46;5.40;99.90
14359;DHT22;7263;49.418;11.064;2022-09-30T03:04:17;5.40;99.90
14359;DHT22;7263;49.418;11.064;2022-09-30T03:06:44;5.50;99.90
14359;DHT22;7263;49.418;11.064;2022-09-30T03:11:39;5.50;99.90
14359;DHT22;7263;49.418;11.064;2022-09-30T03:14:27;5.50;99.90
14359;DHT22;7263;49.418;11.064;2022-09-30T03:20:09;5.40;99.90
14359;DHT22;7263;49.418;11.064;2022-09-30T03:22:53;5.40;99.90
14359;DHT22;7263;49.418;11.064;2022-09-30T03:25:34;5.50;99.90
14359;DHT22;7263;49.418;11.064;2022-09-30T03:28:13;5.50;99.90
14359;DHT22;7263;49.418;11.064;2022-09-30T03:30:47;5.50;99.90
14359;DHT22;7263;49.418;11.064;2022-09-30T03:33:21;5.50;99.90
14359;DHT22;7263;49.418;11.064;2022-09-30T03:35:57;5.50;99.90
14359;DHT22;7263;49.418;11.064;2022-09-30T03:38:35;5.50;99.90
14359;DHT22;7263;49.418;11.064;2022-09-30T03:41:09;5.50;99.90
14359;DHT22;7263;49.418;11.064;2022-09-30T03:43:42;5.60;99.90
14359;DHT22;7263;49.418;11.064;2022-09-30T03:46:16;5.70;99.90
14359;DHT22;7263;49.418;11.064;2022-09-30T03:48:47;5.70;99.90
14359;DHT22;7263;49.418;11.064;2022-09-30T03:51:16;5.70;99.90
14359;DHT22;7263;49.418;11.064;2022-09-30T03:53:43;5.70;99.90
14359;DHT22;7263;49.418;11.064;2022-09-30T03:56:12;5.80;99.90
14359;DHT22;7263;49.418;11.064;2022-09-30T03:58:41;5.80;99.90
14359;DHT22;7263;49.418;11.064;2022-09-30T04:01:16;5.80;99.90
14359;DHT22;7263;49.418;11.064;2022-09-30T04:06:12;5.80;99.90
14359;DHT22;7263;49.418;11.064;2022-09-30T04:08:40;5.80;99.90
14359;DHT22;7263;49.418;11.064;2022-09-30T04:11:08;5.80;99.90
14359;DHT22;7263;49.418;11.064;2022-09-30T04:16:02;5.80;99.90
14359;DHT22;7263;49.418;11.064;2022-09-30T04:18:29;5.80;99.90
14359;DHT22;7263;49.418;11.064;2022-09-30T04:20:56;5.80;99.90
14359;DHT22;7263;49.418;11.064;2022-09-30T04:23:24;5.80;99.90
14359;DHT22;7263;49.418;11.064;2022-09-30T04:25:53;5.80;99.90
14359;DHT22;7263;49.418;11.064;2022-09-30T04:28:20;5.90;99.90
14359;DHT22;7263;49.418;11.064;2022-09-30T04:33:14;5.80;99.90
14359;DHT22;7263;49.418;11.064;2022-09-30T04:38:08;5.90;99.90
14359;DHT22;7263;49.418;11.064;2022-09-30T04:40:36;5.90;99.90
14359;DHT22;7263;49.418;11.064;2022-09-30T04:43:04;5.90;99.90
14359;DHT22;7263;49.418;11.064;2022-09-30T04:47:59;5.80;99.90
14359;DHT22;7263;49.418;11.064;2022-09-30T04:50:26;5.90;99.90
14359;DHT22;7263;49.418;11.064;2022-09-30T04:52:53;6.00;99.90
14359;DHT22;7263;49.418;11.064;2022-09-30T04:55:22;5.80;99.90
14359;DHT22;7263;49.418;11.064;2022-09-30T04:57:49;5.80;99.90
14359;DHT22;7263;49.418;11.064;2022-09-30T05:00:17;5.80;99.90
14359;DHT22;7263;49.418;11.064;2022-09-30T05:02:45;5.80;99.90
14359;DHT22;7263;49.418;11.064;2022-09-30T05:05:13;5.80;99.90
14359;DHT22;7263;49.418;11.064;2022-09-30T05:10:08;5.80;99.90
14359;DHT22;7263;49.418;11.064;2022-09-30T05:12:36;5.90;99.90
14359;DHT22;7263;49.418;11.064;2022-09-30T05:15:03;5.90;99.90
14359;DHT22;7263;49.418;11.064;2022-09-30T05:17:32;5.90;99.90
14359;DHT22;7263;49.418;11.064;2022-09-30T05:19:59;5.90;99.90
14359;DHT22;7263;49.418;11.064;2022-09-30T05:22:27;5.90;99.90
14359;DHT22;7263;49.418;11.064;2022-09-30T05:27:22;5.90;99.90
14359;DHT22;7263;49.418;11.064;2022-09-30T05:29:49;5.90;99.90
14359;DHT22;7263;49.418;11.064;2022-09-30T05:32:16;5.90;99.90
14359;DHT22;7263;49.418;11.064;2022-09-30T05:34:45;5.90;99.90
14359;DHT22;7263;49.418;11.064;2022-09-30T05:37:13;5.90;99.90
14359;DHT22;7263;49.418;11.064;2022-09-30T05:39:40;5.80;99.90
14359;DHT22;7263;49.418;11.064;2022-09-30T05:44:36;5.80;99.90
14359;DHT22;7263;49.418;11.064;2022-09-30T05:52:01;5.80;99.90
14359;DHT22;7263;49.418;11.064;2022-09-30T05:54:27;5.90;99.90
14359;DHT22;7263;49.418;11.064;2022-09-30T05:59:21;5.90;99.90
14359;DHT22;7263;49.418;11.064;2022-09-30T06:01:48;5.80;99.90
14359;DHT22;7263;49.418;11.064;2022-09-30T06:06:42;5.90;99.90
14359;DHT22;7263;49.418;11.064;2022-09-30T06:09:10;5.90;99.90
14359;DHT22;7263;49.418;11.064;2022-09-30T06:14:04;6.00;99.90
14359;DHT22;7263;49.418;11.064;2022-09-30T06:16:32;6.00;99.90
14359;DHT22;7263;49.418;11.064;2022-09-30T06:18:59;6.10;99.90
14359;DHT22;7263;49.418;11.064;2022-09-30T06:21:26;6.00;99.90
14359;DHT22;7263;49.418;11.064;2022-09-30T06:23:54;6.10;99.90
14359;DHT22;7263;49.418;11.064;2022-09-30T06:26:22;6.00;99.90
14359;DHT22;7263;49.418;11.064;2022-09-30T06:28:49;6.00;99.90
14359;DHT22;7263;49.418;11.064;2022-09-30T06:33:43;5.90;99.90
14359;DHT22;7263;49.418;11.064;2022-09-30T06:36:11;5.80;99.90
14359;DHT22;7263;49.418;11.064;2022-09-30T06:38:39;5.80;99.90
14359;DHT22;7263;49.418;11.064;2022-09-30T06:43:34;5.90;99.90
14359;DHT22;7263;49.418;11.064;2022-09-30T06:46:01;5.90;99.90
14359;DHT22;7263;49.418;11.064;2022-09-30T06:50:57;6.00;99.90
14359;DHT22;7263;49.418;11.064;2022-09-30T06:55:54;6.10;99.90
14359;DHT22;7263;49.418;11.064;2022-09-30T06:58:21;6.10;99.90
14359;DHT22;7263;49.418;11.064;2022-09-30T07:00:57;6.20;99.90
14359;DHT22;7263;49.418;11.064;2022-09-30T07:03:30;6.30;99.90
14359;DHT22;7263;49.418;11.064;2022-09-30T07:05:58;6.50;99.90
14359;DHT22;7263;49.418;11.064;2022-09-30T07:08:27;6.50;99.90
14359;DHT22;7263;49.418;11.064;2022-09-30T07:10:56;6.60;99.90
14359;DHT22;7263;49.418;11.064;2022-09-30T07:13:23;6.60;99.90
14359;DHT22;7263;49.418;11.064;2022-09-30T07:15:50;6.60;99.90
14359;DHT22;7263;49.418;11.064;2022-09-30T07:18:20;6.60;99.90
14359;DHT22;7263;49.418;11.064;2022-09-30T07:20:48;6.70;99.90
14359;DHT22;7263;49.418;11.064;2022-09-30T07:23:15;6.70;99.90
14359;DHT22;7263;49.418;11.064;2022-09-30T07:25:49;6.80;99.90
14359;DHT22;7263;49.418;11.064;2022-09-30T07:28:16;6.80;99.90
14359;DHT22;7263;49.418;11.064;2022-09-30T07:30:43;6.90;99.90
14359;DHT22;7263;49.418;11.064;2022-09-30T07:33:10;6.90;99.90
14359;DHT22;7263;49.418;11.064;2022-09-30T07:35:49;6.90;99.90
14359;DHT22;7263;49.418;11.064;2022-09-30T07:38:17;6.90;99.90
14359;DHT22;7263;49.418;11.064;2022-09-30T07:40:51;7.00;99.90
14359;DHT22;7263;49.418;11.064;2022-09-30T07:43:19;7.10;99.90
14359;DHT22;7263;49.418;11.064;2022-09-30T07:45:46;7.20;99.90
14359;DHT22;7263;49.418;11.064;2022-09-30T07:48:13;7.20;99.90
14359;DHT22;7263;49.418;11.064;2022-09-30T07:54:32;7.10;99.90
14359;DHT22;7263;49.418;11.064;2022-09-30T07:57:01;7.20;99.90
14359;DHT22;7263;49.418;11.064;2022-09-30T07:59:29;7.30;99.90
14359;DHT22;7263;49.418;11.064;2022-09-30T08:01:57;7.40;99.90
14359;DHT22;7263;49.418;11.064;2022-09-30T08:04:25;7.40;99.90
14359;DHT22;7263;49.418;11.064;2022-09-30T08:06:54;7.50;99.90
14359;DHT22;7263;49.418;11.064;2022-09-30T08:09:22;7.60;99.90
14359;DHT22;7263;49.418;11.064;2022-09-30T08:11:50;7.70;99.90
14359;DHT22;7263;49.418;11.064;2022-09-30T08:14:19;7.80;99.90
14359;DHT22;7263;49.418;11.064;2022-09-30T08:16:46;7.80;99.90
14359;DHT22;7263;49.418;11.064;2022-09-30T08:19:14;7.90;99.90
14359;DHT22;7263;49.418;11.064;2022-09-30T08:24:09;8.10;99.90
14359;DHT22;7263;49.418;11.064;2022-09-30T08:26:37;8.30;99.90
14359;DHT22;7263;49.418;11.064;2022-09-30T08:29:05;8.30;99.90
14359;DHT22;7263;49.418;11.064;2022-09-30T08:31:32;8.60;99.90
14359;DHT22;7263;49.418;11.064;2022-09-30T08:33:59;8.60;99.90
14359;DHT22;7263;49.418;11.064;2022-09-30T08:36:27;8.80;99.90
14359;DHT22;7263;49.418;11.064;2022-09-30T08:38:54;8.80;99.90
14359;DHT22;7263;49.418;11.064;2022-09-30T08:41:35;8.90;99.90
14359;DHT22;7263;49.418;11.064;2022-09-30T08:44:13;8.80;99.90
14359;DHT22;7263;49.418;11.064;2022-09-30T08:46:47;8.80;99.90
14359;DHT22;7263;49.418;11.064;2022-09-30T08:49:29;8.90;99.90
14359;DHT22;7263;49.418;11.064;2022-09-30T08:51:59;9.00;99.90
14359;DHT22;7263;49.418;11.064;2022-09-30T08:54:30;9.00;99.90
14359;DHT22;7263;49.418;11.064;2022-09-30T08:56:58;9.00;99.90
14359;DHT22;7263;49.418;11.064;2022-09-30T08:59:31;9.20;99.90
14359;DHT22;7263;49.418;11.064;2022-09-30T09:02:03;9.30;99.90
14359;DHT22;7263;49.418;11.064;2022-09-30T09:04:36;9.30;99.90
14359;DHT22;7263;49.418;11.064;2022-09-30T09:07:09;9.20;99.90
14359;DHT22;7263;49.418;11.064;2022-09-30T09:09:50;9.20;99.90
14359;DHT22;7263;49.418;11.064;2022-09-30T09:12:26;9.10;99.90
14359;DHT22;7263;49.418;11.064;2022-09-30T09:15:09;9.20;99.90
14359;DHT22;7263;49.418;11.064;2022-09-30T09:17:56;9.30;99.90
14359;DHT22;7263;49.418;11.064;2022-09-30T09:20:31;9.30;99.90
14359;DHT22;7263;49.418;11.064;2022-09-30T09:23:01;9.60;99.90
14359;DHT22;7263;49.418;11.064;2022-09-30T09:27:58;9.90;99.90
14359;DHT22;7263;49.418;11.064;2022-09-30T09:30:28;10.10;99.90
14359;DHT22;7263;49.418;11.064;2022-09-30T09:33:01;10.30;99.90
14359;DHT22;7263;49.418;11.064;2022-09-30T09:35:37;10.60;99.90
14359;DHT22;7263;49.418;11.064;2022-09-30T09:38:12;10.80;99.90
14359;DHT22;7263;49.418;11.064;2022-09-30T09:41:07;10.90;99.90
14359;DHT22;7263;49.418;11.064;2022-09-30T09:43:49;11.10;99.90
14359;DHT22;7263;49.418;11.064;2022-09-30T09:46:21;11.20;99.90
14359;DHT22;7263;49.418;11.064;2022-09-30T09:52:00;11.70;99.90
14359;DHT22;7263;49.418;11.064;2022-09-30T09:54:32;12.00;99.90
14359;DHT22;7263;49.418;11.064;2022-09-30T09:57:04;12.40;99.90
14359;DHT22;7263;49.418;11.064;2022-09-30T09:59:34;12.40;99.90
14359;DHT22;7263;49.418;11.064;2022-09-30T10:02:02;12.50;99.90
14359;DHT22;7263;49.418;11.064;2022-09-30T10:04:47;12.80;99.90
14359;DHT22;7263;49.418;11.064;2022-09-30T10:07:25;13.10;99.90
14359;DHT22;7263;49.418;11.064;2022-09-30T10:10:05;13.50;99.90
14359;DHT22;7263;49.418;11.064;2022-09-30T10:12:32;13.80;99.90
14359;DHT22;7263;49.418;11.064;2022-09-30T10:15:03;14.10;99.90
14359;DHT22;7263;49.418;11.064;2022-09-30T10:17:33;14.50;99.90
14359;DHT22;7263;49.418;11.064;2022-09-30T10:20:03;14.80;99.90
14359;DHT22;7263;49.418;11.064;2022-09-30T10:22:33;15.00;99.90
14359;DHT22;7263;49.418;11.064;2022-09-30T10:25:20;14.70;99.90
14359;DHT22;7263;49.418;11.064;2022-09-30T10:27:50;14.60;99.90
14359;DHT22;7263;49.418;11.064;2022-09-30T10:30:39;14.50;99.90
14359;DHT22;7263;49.418;11.064;2022-09-30T10:33:15;14.50;99.90
14359;DHT22;7263;49.418;11.064;2022-09-30T10:35:54;14.60;99.90
14359;DHT22;7263;49.418;11.064;2022-09-30T10:38:24;14.90;99.90
14359;DHT22;7263;49.418;11.064;2022-09-30T10:40:54;15.30;99.90
14359;DHT22;7263;49.418;11.064;2022-09-30T10:43:24;15.50;99.90
14359;DHT22;7263;49.418;11.064;2022-09-30T10:45:52;16.00;99.90
14359;DHT22;7263;49.418;11.064;2022-09-30T10:48:23;16.00;99.90
14359;DHT22;7263;49.418;11.064;2022-09-30T10:53:21;16.10;99.90
14359;DHT22;7263;49.418;11.064;2022-09-30T10:55:49;16.00;99.90
14359;DHT22;7263;49.418;11.064;2022-09-30T11:01:19;15.90;99.90
14359;DHT22;7263;49.418;11.064;2022-09-30T11:03:58;16.00;99.90
14359;DHT22;7263;49.418;11.064;2022-09-30T11:06:31;15.80;99.90
14359;DHT22;7263;49.418;11.064;2022-09-30T11:09:03;15.90;99.90
14359;DHT22;7263;49.418;11.064;2022-09-30T11:11:36;16.00;99.90
14359;DHT22;7263;49.418;11.064;2022-09-30T11:16:46;16.10;99.90
14359;DHT22;7263;49.418;11.064;2022-09-30T11:19:22;16.20;99.90
14359;DHT22;7263;49.418;11.064;2022-09-30T11:21:54;16.40;99.90
14359;DHT22;7263;49.418;11.064;2022-09-30T11:24:27;16.60;99.90
14359;DHT22;7263;49.418;11.064;2022-09-30T11:27:00;16.80;99.90
14359;DHT22;7263;49.418;11.064;2022-09-30T11:29:41;17.00;99.90
14359;DHT22;7263;49.418;11.064;2022-09-30T11:32:18;16.90;99.90
14359;DHT22;7263;49.418;11.064;2022-09-30T11:34:57;17.20;99.90
14359;DHT22;7263;49.418;11.064;2022-09-30T11:37:35;17.10;99.90
14359;DHT22;7263;49.418;11.064;2022-09-30T11:43:12;16.90;99.90
14359;DHT22;7263;49.418;11.064;2022-09-30T11:45:53;16.90;99.90
14359;DHT22;7263;49.418;11.064;2022-09-30T11:48:34;17.00;99.90
14359;DHT22;7263;49.418;11.064;2022-09-30T11:51:12;17.00;99.90
14359;DHT22;7263;49.418;11.064;2022-09-30T11:53:50;16.80;99.90
14359;DHT22;7263;49.418;11.064;2022-09-30T11:56:37;16.50;99.90
14359;DHT22;7263;49.418;11.064;2022-09-30T11:59:13;16.60;99.90
14359;DHT22;7263;49.418;11.064;2022-09-30T12:01:43;16.40;99.90
14359;DHT22;7263;49.418;11.064;2022-09-30T12:04:24;16.20;99.90
14359;DHT22;7263;49.418;11.064;2022-09-30T12:06:57;16.20;99.90
14359;DHT22;7263;49.418;11.064;2022-09-30T12:09:30;16.00;99.90
14359;DHT22;7263;49.418;11.064;2022-09-30T12:12:02;15.90;99.90
14359;DHT22;7263;49.418;11.064;2022-09-30T12:14:34;15.80;99.90
14359;DHT22;7263;49.418;11.064;2022-09-30T12:17:06;15.90;99.90
14359;DHT22;7263;49.418;11.064;2022-09-30T12:19:36;15.80;99.90
14359;DHT22;7263;49.418;11.064;2022-09-30T12:22:10;15.90;99.90
14359;DHT22;7263;49.418;11.064;2022-09-30T12:24:39;15.90;99.90
14359;DHT22;7263;49.418;11.064;2022-09-30T12:27:15;16.00;99.90
14359;DHT22;7263;49.418;11.064;2022-09-30T12:33:09;15.70;99.90
14359;DHT22;7263;49.418;11.064;2022-09-30T12:36:16;15.60;99.90
14359;DHT22;7263;49.418;11.064;2022-09-30T12:38:57;15.40;99.90
14359;DHT22;7263;49.418;11.064;2022-09-30T12:41:38;15.30;99.90
14359;DHT22;7263;49.418;11.064;2022-09-30T12:44:33;15.40;99.90
14359;DHT22;7263;49.418;11.064;2022-09-30T12:47:28;15.40;99.90
14359;DHT22;7263;49.418;11.064;2022-09-30T12:49:57;15.20;99.90
14359;DHT22;7263;49.418;11.064;2022-09-30T12:54:56;15.10;99.90
14359;DHT22;7263;49.418;11.064;2022-09-30T12:57:27;15.10;99.90
14359;DHT22;7263;49.418;11.064;2022-09-30T12:59:57;15.10;99.90
14359;DHT22;7263;49.418;11.064;2022-09-30T13:02:30;15.20;99.90
14359;DHT22;7263;49.418;11.064;2022-09-30T13:08:15;15.30;99.90
14359;DHT22;7263;49.418;11.064;2022-09-30T13:10:56;15.20;99.90
14359;DHT22;7263;49.418;11.064;2022-09-30T13:13:25;15.30;99.90
14359;DHT22;7263;49.418;11.064;2022-09-30T13:15:53;15.20;99.90
14359;DHT22;7263;49.418;11.064;2022-09-30T13:18:59;15.20;99.90
14359;DHT22;7263;49.418;11.064;2022-09-30T13:21:26;15.30;99.90
14359;DHT22;7263;49.418;11.064;2022-09-30T13:23:55;15.30;99.90
14359;DHT22;7263;49.418;11.064;2022-09-30T13:26:43;15.30;99.90
14359;DHT22;7263;49.418;11.064;2022-09-30T13:29:33;15.20;99.90
14359;DHT22;7263;49.418;11.064;2022-09-30T13:32:04;15.20;99.90
14359;DHT22;7263;49.418;11.064;2022-09-30T13:34:33;15.30;99.90
14359;DHT22;7263;49.418;11.064;2022-09-30T13:37:31;15.10;99.90
14359;DHT22;7263;49.418;11.064;2022-09-30T13:39:59;15.10;99.90
14359;DHT22;7263;49.418;11.064;2022-09-30T13:42:35;15.10;99.90
14359;DHT22;7263;49.418;11.064;2022-09-30T13:45:10;15.10;99.90
14359;DHT22;7263;49.418;11.064;2022-09-30T13:47:43;15.10;99.90
14359;DHT22;7263;49.418;11.064;2022-09-30T13:50:14;14.90;99.90
14359;DHT22;7263;49.418;11.064;2022-09-30T13:52:46;14.90;99.90
14359;DHT22;7263;49.418;11.064;2022-09-30T13:55:19;14.90;99.90
14359;DHT22;7263;49.418;11.064;2022-09-30T13:57:54;14.90;99.90
14359;DHT22;7263;49.418;11.064;2022-09-30T14:00:27;14.90;99.90
14359;DHT22;7263;49.418;11.064;2022-09-30T14:03:10;14.80;99.90
14359;DHT22;7263;49.418;11.064;2022-09-30T14:05:51;14.80;99.90
14359;DHT22;7263;49.418;11.064;2022-09-30T14:13:56;14.90;99.90
14359;DHT22;7263;49.418;11.064;2022-09-30T14:16:44;14.80;99.90
14359;DHT22;7263;49.418;11.064;2022-09-30T14:21:49;14.70;99.90
14359;DHT22;7263;49.418;11.064;2022-09-30T14:24:22;14.60;99.90
14359;DHT22;7263;49.418;11.064;2022-09-30T14:29:54;14.50;99.90
14359;DHT22;7263;49.418;11.064;2022-09-30T14:32:27;14.40;99.90
14359;DHT22;7263;49.418;11.064;2022-09-30T14:34:56;14.30;99.90
14359;DHT22;7263;49.418;11.064;2022-09-30T14:37:27;14.40;99.90
14359;DHT22;7263;49.418;11.064;2022-09-30T14:39:55;14.20;99.90
14359;DHT22;7263;49.418;11.064;2022-09-30T14:42:28;14.20;99.90
14359;DHT22;7263;49.418;11.064;2022-09-30T14:44:58;14.10;99.90
14359;DHT22;7263;49.418;11.064;2022-09-30T14:47:33;14.00;99.90
14359;DHT22;7263;49.418;11.064;2022-09-30T14:50:03;13.90;99.90
14359;DHT22;7263;49.418;11.064;2022-09-30T14:55:19;13.80;99.90
14359;DHT22;7263;49.418;11.064;2022-09-30T14:57:48;13.80;99.90
14359;DHT22;7263;49.418;11.064;2022-09-30T15:00:23;13.70;99.90
14359;DHT22;7263;49.418;11.064;2022-09-30T15:05:20;13.60;99.90
14359;DHT22;7263;49.418;11.064;2022-09-30T15:10:17;13.50;99.90
14359;DHT22;7263;49.418;11.064;2022-09-30T15:12:48;13.50;99.90
14359;DHT22;7263;49.418;11.064;2022-09-30T15:15:32;13.40;99.90
14359;DHT22;7263;49.418;11.064;2022-09-30T15:18:00;13.40;99.90
14359;DHT22;7263;49.418;11.064;2022-09-30T15:20:30;13.30;99.90
14359;DHT22;7263;49.418;11.064;2022-09-30T15:23:00;13.20;99.90
14359;DHT22;7263;49.418;11.064;2022-09-30T15:25:29;13.30;99.90
14359;DHT22;7263;49.418;11.064;2022-09-30T15:30:27;13.10;99.90
14359;DHT22;7263;49.418;11.064;2022-09-30T15:32:59;13.10;99.90
14359;DHT22;7263;49.418;11.064;2022-09-30T15:35:30;13.10;99.90
14359;DHT22;7263;49.418;11.064;2022-09-30T15:38:06;13.00;99.90
14359;DHT22;7263;49.418;11.064;2022-09-30T15:43:21;13.00;99.90
14359;DHT22;7263;49.418;11.064;2022-09-30T15:45:59;12.90;99.90
14359;DHT22;7263;49.418;11.064;2022-09-30T15:48:40;12.90;99.90
14359;DHT22;7263;49.418;11.064;2022-09-30T15:51:24;12.80;99.90
14359;DHT22;7263;49.418;11.064;2022-09-30T15:53:51;12.90;99.90
14359;DHT22;7263;49.418;11.064;2022-09-30T15:56:23;12.90;99.90
14359;DHT22;7263;49.418;11.064;2022-09-30T15:58:54;12.90;99.90
14359;DHT22;7263;49.418;11.064;2022-09-30T16:01:23;12.90;99.90
14359;DHT22;7263;49.418;11.064;2022-09-30T16:03:54;12.90;99.90
14359;DHT22;7263;49.418;11.064;2022-09-30T16:06:25;12.80;99.90
14359;DHT22;7263;49.418;11.064;2022-09-30T16:08:54;12.70;99.90
14359;DHT22;7263;49.418;11.064;2022-09-30T16:11:28;12.60;99.90
14359;DHT22;7263;49.418;11.064;2022-09-30T16:13:56;12.50;99.90
14359;DHT22;7263;49.418;11.064;2022-09-30T16:16:27;12.50;99.90
14359;DHT22;7263;49.418;11.064;2022-09-30T16:18:56;12.40;99.90
14359;DHT22;7263;49.418;11.064;2022-09-30T16:21:29;12.30;99.90
14359;DHT22;7263;49.418;11.064;2022-09-30T16:23:56;12.30;99.90
14359;DHT22;7263;49.418;11.064;2022-09-30T16:26:27;12.30;99.90
14359;DHT22;7263;49.418;11.064;2022-09-30T16:28:55;12.30;99.90
14359;DHT22;7263;49.418;11.064;2022-09-30T16:31:27;12.20;99.90
14359;DHT22;7263;49.418;11.064;2022-09-30T16:33:55;12.20;99.90
14359;DHT22;7263;49.418;11.064;2022-09-30T16:36:22;12.10;99.90
14359;DHT22;7263;49.418;11.064;2022-09-30T16:38:48;12.00;99.90
14359;DHT22;7263;49.418;11.064;2022-09-30T16:41:15;12.00;99.90
14359;DHT22;7263;49.418;11.064;2022-09-30T16:43:42;11.90;99.90
14359;DHT22;7263;49.418;11.064;2022-09-30T16:48:38;11.70;99.90
14359;DHT22;7263;49.418;11.064;2022-09-30T16:51:12;11.60;99.90
14359;DHT22;7263;49.418;11.064;2022-09-30T16:56:13;11.40;99.90
14359;DHT22;7263;49.418;11.064;2022-09-30T16:58:39;11.30;99.90
14359;DHT22;7263;49.418;11.064;2022-09-30T17:01:14;11.20;99.90
14359;DHT22;7263;49.418;11.064;2022-09-30T17:03:43;11.10;99.90
14359;DHT22;7263;49.418;11.064;2022-09-30T17:06:10;10.90;99.90
14359;DHT22;7263;49.418;11.064;2022-09-30T17:08:37;10.90;99.90
14359;DHT22;7263;49.418;11.064;2022-09-30T17:11:04;10.80;99.90
14359;DHT22;7263;49.418;11.064;2022-09-30T17:13:31;10.60;99.90
14359;DHT22;7263;49.418;11.064;2022-09-30T17:15:58;10.50;99.90
14359;DHT22;7263;49.418;11.064;2022-09-30T17:18:26;10.40;99.90
14359;DHT22;7263;49.418;11.064;2022-09-30T17:20:54;10.40;99.90
14359;DHT22;7263;49.418;11.064;2022-09-30T17:23:23;10.30;99.90
14359;DHT22;7263;49.418;11.064;2022-09-30T17:25:50;10.20;99.90
14359;DHT22;7263;49.418;11.064;2022-09-30T17:28:18;10.00;99.90
14359;DHT22;7263;49.418;11.064;2022-09-30T17:30:46;9.90;99.90
14359;DHT22;7263;49.418;11.064;2022-09-30T17:33:15;9.90;99.90
14359;DHT22;7263;49.418;11.064;2022-09-30T17:35:43;9.80;99.90
14359;DHT22;7263;49.418;11.064;2022-09-30T17:38:12;9.70;99.90
14359;DHT22;7263;49.418;11.064;2022-09-30T17:45:50;9.40;99.90
14359;DHT22;7263;49.418;11.064;2022-09-30T17:50:49;9.20;99.90
14359;DHT22;7263;49.418;11.064;2022-09-30T17:53:19;9.10;99.90
14359;DHT22;7263;49.418;11.064;2022-09-30T17:55:47;9.10;99.90
14359;DHT22;7263;49.418;11.064;2022-09-30T17:58:14;8.90;99.90
14359;DHT22;7263;49.418;11.064;2022-09-30T18:00:45;8.90;99.90
14359;DHT22;7263;49.418;11.064;2022-09-30T18:05:39;8.70;99.90
14359;DHT22;7263;49.418;11.064;2022-09-30T18:08:06;8.60;99.90
14359;DHT22;7263;49.418;11.064;2022-09-30T18:10:36;8.50;99.90
14359;DHT22;7263;49.418;11.064;2022-09-30T18:13:03;8.40;99.90
14359;DHT22;7263;49.418;11.064;2022-09-30T18:15:30;8.40;99.90
14359;DHT22;7263;49.418;11.064;2022-09-30T18:25:18;8.40;99.90
14359;DHT22;7263;49.418;11.064;2022-09-30T18:27:51;8.30;99.90
14359;DHT22;7263;49.418;11.064;2022-09-30T18:30:19;8.30;99.90
14359;DHT22;7263;49.418;11.064;2022-09-30T18:32:49;8.20;99.90
14359;DHT22;7263;49.418;11.064;2022-09-30T18:35:17;8.10;99.90
14359;DHT22;7263;49.418;11.064;2022-09-30T18:37:45;8.10;99.90